sensor_id;sensor_type;location;lat;lon;timestamp;P1;durP1;ratioP1;P2;durP2;ratioP2
32501;SDS011;18952;52.516;13.460;2022-08-16T00:02:29;33.00;;;29.48;;
32501;SDS011;18952;52.516;13.460;2022-08-16T00:04:55;34.00;;;30.55;;
32501;SDS011;18952;52.516;13.460;2022-08-16T00:07:25;31.95;;;28.92;;
32501;SDS011;18952;52.516;13.460;2022-08-16T00:09:55;32.45;;;29.02;;
32501;SDS011;18952;52.516;13.460;2022-08-16T00:12:24;31.80;;;28.50;;
32501;SDS011;18952;52.516;13.460;2022-08-16T00:14:52;29.60;;;26.58;;
32501;SDS011;18952;52.516;13.460;2022-08-16T00:17:23;28.95;;;26.05;;
32501;SDS011;18952;52.516;13.460;2022-08-16T00:19:51;27.42;;;24.65;;
32501;SDS011;18952;52.516;13.460;2022-08-16T00:22:21;28.80;;;25.83;;
32501;SDS011;18952;52.516;13.460;2022-08-16T00:24:53;29.45;;;26.30;;
32501;SDS011;18952;52.516;13.460;2022-08-16T00:27:20;31.67;;;28.38;;
32501;SDS011;18952;52.516;13.460;2022-08-16T00:29:48;31.30;;;28.20;;
32501;SDS011;18952;52.516;13.460;2022-08-16T00:32:26;32.85;;;26.98;;
32501;SDS011;18952;52.516;13.460;2022-08-16T00:34:58;28.42;;;25.45;;
32501;SDS011;18952;52.516;13.460;2022-08-16T00:37:26;31.45;;;28.35;;
32501;SDS011;18952;52.516;13.460;2022-08-16T00:40:15;28.52;;;25.50;;
32501;SDS011;18952;52.516;13.460;2022-08-16T00:43:03;27.60;;;24.13;;
32501;SDS011;18952;52.516;13.460;2022-08-16T00:45:57;26.00;;;23.20;;
32501;SDS011;18952;52.516;13.460;2022-08-16T00:48:59;24.95;;;22.27;;
32501;SDS011;18952;52.516;13.460;2022-08-16T00:51:27;24.75;;;22.17;;
32501;SDS011;18952;52.516;13.460;2022-08-16T00:53:54;25.73;;;21.83;;
32501;SDS011;18952;52.516;13.460;2022-08-16T00:56:23;26.17;;;23.35;;
32501;SDS011;18952;52.516;13.460;2022-08-16T00:59:13;25.33;;;22.63;;
32501;SDS011;18952;52.516;13.460;2022-08-16T01:01:42;23.25;;;20.92;;
32501;SDS011;18952;52.516;13.460;2022-08-16T01:04:09;22.30;;;20.23;;
32501;SDS011;18952;52.516;13.460;2022-08-16T01:06:57;20.88;;;18.83;;
32501;SDS011;18952;52.516;13.460;2022-08-16T01:09:28;20.50;;;18.40;;
32501;SDS011;18952;52.516;13.460;2022-08-16T01:12:03;19.83;;;18.02;;
32501;SDS011;18952;52.516;13.460;2022-08-16T01:14:35;19.60;;;17.65;;
32501;SDS011;18952;52.516;13.460;2022-08-16T01:17:08;23.07;;;18.97;;
32501;SDS011;18952;52.516;13.460;2022-08-16T01:19:39;21.95;;;19.75;;
32501;SDS011;18952;52.516;13.460;2022-08-16T01:25:07;20.15;;;18.08;;
32501;SDS011;18952;52.516;13.460;2022-08-16T01:27:40;20.20;;;17.92;;
32501;SDS011;18952;52.516;13.460;2022-08-16T01:32:46;21.60;;;19.40;;
32501;SDS011;18952;52.516;13.460;2022-08-16T01:35:33;21.95;;;19.63;;
32501;SDS011;18952;52.516;13.460;2022-08-16T01:38:39;21.05;;;19.13;;
32501;SDS011;18952;52.516;13.460;2022-08-16T01:41:19;21.50;;;19.35;;
32501;SDS011;18952;52.516;13.460;2022-08-16T01:43:49;25.58;;;22.85;;
32501;SDS011;18952;52.516;13.460;2022-08-16T01:46:26;25.23;;;22.70;;
32501;SDS011;18952;52.516;13.460;2022-08-16T01:49:07;22.35;;;20.25;;
32501;SDS011;18952;52.516;13.460;2022-08-16T01:51:39;23.52;;;21.20;;
32501;SDS011;18952;52.516;13.460;2022-08-16T01:54:09;24.52;;;22.08;;
32501;SDS011;18952;52.516;13.460;2022-08-16T01:56:38;23.77;;;21.38;;
32501;SDS011;18952;52.516;13.460;2022-08-16T01:59:09;24.15;;;21.77;;
32501;SDS011;18952;52.516;13.460;2022-08-16T02:01:42;23.30;;;20.85;;
32501;SDS011;18952;52.516;13.460;2022-08-16T02:04:22;26.02;;;23.50;;
32501;SDS011;18952;52.516;13.460;2022-08-16T02:07:10;23.80;;;21.25;;
32501;SDS011;18952;52.516;13.460;2022-08-16T02:09:38;23.25;;;21.05;;
32501;SDS011;18952;52.516;13.460;2022-08-16T02:12:06;26.05;;;23.38;;
32501;SDS011;18952;52.516;13.460;2022-08-16T02:14:54;23.70;;;21.42;;
32501;SDS011;18952;52.516;13.460;2022-08-16T02:17:24;23.17;;;20.80;;
32501;SDS011;18952;52.516;13.460;2022-08-16T02:19:53;26.35;;;23.65;;
32501;SDS011;18952;52.516;13.460;2022-08-16T02:22:26;25.23;;;22.70;;
32501;SDS011;18952;52.516;13.460;2022-08-16T02:25:12;24.02;;;21.83;;
32501;SDS011;18952;52.516;13.460;2022-08-16T02:27:42;23.70;;;21.63;;
32501;SDS011;18952;52.516;13.460;2022-08-16T02:30:16;25.20;;;22.80;;
32501;SDS011;18952;52.516;13.460;2022-08-16T02:33:02;23.33;;;21.13;;
32501;SDS011;18952;52.516;13.460;2022-08-16T02:35:31;25.00;;;22.70;;
32501;SDS011;18952;52.516;13.460;2022-08-16T02:37:58;25.98;;;23.40;;
32501;SDS011;18952;52.516;13.460;2022-08-16T02:40:33;25.60;;;22.98;;
32501;SDS011;18952;52.516;13.460;2022-08-16T02:43:01;24.27;;;21.58;;
32501;SDS011;18952;52.516;13.460;2022-08-16T02:45:28;25.40;;;22.95;;
32501;SDS011;18952;52.516;13.460;2022-08-16T02:47:54;26.58;;;22.10;;
32501;SDS011;18952;52.516;13.460;2022-08-16T02:50:41;26.73;;;24.23;;
32501;SDS011;18952;52.516;13.460;2022-08-16T02:53:28;26.58;;;23.98;;
32501;SDS011;18952;52.516;13.460;2022-08-16T02:55:56;25.95;;;23.45;;
32501;SDS011;18952;52.516;13.460;2022-08-16T02:58:26;25.23;;;22.83;;
32501;SDS011;18952;52.516;13.460;2022-08-16T03:00:54;24.92;;;22.50;;
32501;SDS011;18952;52.516;13.460;2022-08-16T03:03:22;25.63;;;23.13;;
32501;SDS011;18952;52.516;13.460;2022-08-16T03:05:51;27.02;;;24.40;;
32501;SDS011;18952;52.516;13.460;2022-08-16T03:08:20;25.42;;;23.20;;
32501;SDS011;18952;52.516;13.460;2022-08-16T03:11:08;25.17;;;22.88;;
32501;SDS011;18952;52.516;13.460;2022-08-16T03:13:48;25.13;;;22.45;;
32501;SDS011;18952;52.516;13.460;2022-08-16T03:16:22;26.75;;;24.05;;
32501;SDS011;18952;52.516;13.460;2022-08-16T03:19:04;25.38;;;22.83;;
32501;SDS011;18952;52.516;13.460;2022-08-16T03:21:31;25.02;;;22.70;;
32501;SDS011;18952;52.516;13.460;2022-08-16T03:24:07;26.63;;;23.77;;
32501;SDS011;18952;52.516;13.460;2022-08-16T03:26:56;25.70;;;23.30;;
32501;SDS011;18952;52.516;13.460;2022-08-16T03:29:28;25.67;;;23.05;;
32501;SDS011;18952;52.516;13.460;2022-08-16T03:31:57;25.38;;;22.75;;
32501;SDS011;18952;52.516;13.460;2022-08-16T03:34:26;25.30;;;22.95;;
32501;SDS011;18952;52.516;13.460;2022-08-16T03:36:55;25.40;;;23.00;;
32501;SDS011;18952;52.516;13.460;2022-08-16T03:39:22;28.27;;;25.48;;
32501;SDS011;18952;52.516;13.460;2022-08-16T03:41:49;30.02;;;27.00;;
32501;SDS011;18952;52.516;13.460;2022-08-16T03:44:25;27.83;;;24.83;;
32501;SDS011;18952;52.516;13.460;2022-08-16T03:47:10;29.55;;;26.65;;
32501;SDS011;18952;52.516;13.460;2022-08-16T03:49:37;29.23;;;26.35;;
32501;SDS011;18952;52.516;13.460;2022-08-16T03:52:03;28.92;;;26.17;;
32501;SDS011;18952;52.516;13.460;2022-08-16T03:54:30;28.17;;;25.27;;
32501;SDS011;18952;52.516;13.460;2022-08-16T03:57:00;31.23;;;27.48;;
32501;SDS011;18952;52.516;13.460;2022-08-16T03:59:30;29.70;;;26.73;;
32501;SDS011;18952;52.516;13.460;2022-08-16T04:01:58;29.63;;;26.63;;
32501;SDS011;18952;52.516;13.460;2022-08-16T04:04:26;30.23;;;26.92;;
32501;SDS011;18952;52.516;13.460;2022-08-16T04:06:59;28.60;;;25.70;;
32501;SDS011;18952;52.516;13.460;2022-08-16T04:09:31;27.92;;;25.27;;
32501;SDS011;18952;52.516;13.460;2022-08-16T04:12:02;30.00;;;27.10;;
32501;SDS011;18952;52.516;13.460;2022-08-16T04:14:36;29.05;;;26.23;;
32501;SDS011;18952;52.516;13.460;2022-08-16T04:17:13;31.05;;;27.73;;
32501;SDS011;18952;52.516;13.460;2022-08-16T04:19:42;30.10;;;27.00;;
32501;SDS011;18952;52.516;13.460;2022-08-16T04:22:10;29.08;;;26.02;;
32501;SDS011;18952;52.516;13.460;2022-08-16T04:24:37;30.98;;;27.88;;
32501;SDS011;18952;52.516;13.460;2022-08-16T04:27:06;31.35;;;28.25;;
32501;SDS011;18952;52.516;13.460;2022-08-16T04:29:34;29.05;;;26.08;;
32501;SDS011;18952;52.516;13.460;2022-08-16T04:32:11;29.45;;;26.60;;
32501;SDS011;18952;52.516;13.460;2022-08-16T04:34:39;29.42;;;26.45;;
32501;SDS011;18952;52.516;13.460;2022-08-16T04:37:05;30.85;;;26.45;;
32501;SDS011;18952;52.516;13.460;2022-08-16T04:39:33;29.67;;;26.42;;
32501;SDS011;18952;52.516;13.460;2022-08-16T04:42:12;30.48;;;26.20;;
32501;SDS011;18952;52.516;13.460;2022-08-16T04:44:42;30.15;;;27.17;;
32501;SDS011;18952;52.516;13.460;2022-08-16T04:47:21;30.58;;;27.42;;
32501;SDS011;18952;52.516;13.460;2022-08-16T04:49:50;36.50;;;28.50;;
32501;SDS011;18952;52.516;13.460;2022-08-16T04:52:18;29.48;;;26.63;;
32501;SDS011;18952;52.516;13.460;2022-08-16T04:55:11;32.78;;;29.55;;
32501;SDS011;18952;52.516;13.460;2022-08-16T04:57:43;31.75;;;28.33;;
32501;SDS011;18952;52.516;13.460;2022-08-16T05:00:23;31.23;;;28.17;;
32501;SDS011;18952;52.516;13.460;2022-08-16T05:02:59;29.10;;;26.33;;
32501;SDS011;18952;52.516;13.460;2022-08-16T05:05:34;30.97;;;27.87;;
32501;SDS011;18952;52.516;13.460;2022-08-16T05:08:20;32.53;;;29.35;;
32501;SDS011;18952;52.516;13.460;2022-08-16T05:10:55;30.05;;;27.15;;
32501;SDS011;18952;52.516;13.460;2022-08-16T05:13:29;30.73;;;27.67;;
32501;SDS011;18952;52.516;13.460;2022-08-16T05:16:07;32.28;;;28.92;;
32501;SDS011;18952;52.516;13.460;2022-08-16T05:18:46;32.45;;;28.95;;
32501;SDS011;18952;52.516;13.460;2022-08-16T05:21:13;30.73;;;27.48;;
32501;SDS011;18952;52.516;13.460;2022-08-16T05:23:40;31.98;;;28.60;;
32501;SDS011;18952;52.516;13.460;2022-08-16T05:26:17;32.92;;;28.23;;
32501;SDS011;18952;52.516;13.460;2022-08-16T05:28:46;32.08;;;27.63;;
32501;SDS011;18952;52.516;13.460;2022-08-16T05:31:21;32.05;;;28.92;;
32501;SDS011;18952;52.516;13.460;2022-08-16T05:33:56;31.05;;;27.65;;
32501;SDS011;18952;52.516;13.460;2022-08-16T05:36:23;31.92;;;28.50;;
32501;SDS011;18952;52.516;13.460;2022-08-16T05:39:03;31.75;;;28.38;;
32501;SDS011;18952;52.516;13.460;2022-08-16T05:41:32;32.45;;;28.90;;
32501;SDS011;18952;52.516;13.460;2022-08-16T05:44:11;32.88;;;29.67;;
32501;SDS011;18952;52.516;13.460;2022-08-16T05:46:50;32.85;;;29.27;;
32501;SDS011;18952;52.516;13.460;2022-08-16T05:49:21;31.15;;;27.98;;
32501;SDS011;18952;52.516;13.460;2022-08-16T05:51:49;35.13;;;28.52;;
32501;SDS011;18952;52.516;13.460;2022-08-16T05:54:16;36.42;;;31.63;;
32501;SDS011;18952;52.516;13.460;2022-08-16T05:56:51;35.78;;;30.65;;
32501;SDS011;18952;52.516;13.460;2022-08-16T05:59:18;40.97;;;31.45;;
32501;SDS011;18952;52.516;13.460;2022-08-16T06:01:47;35.47;;;30.50;;
32501;SDS011;18952;52.516;13.460;2022-08-16T06:04:15;36.20;;;32.30;;
32501;SDS011;18952;52.516;13.460;2022-08-16T06:07:02;33.60;;;30.08;;
32501;SDS011;18952;52.516;13.460;2022-08-16T06:09:33;34.72;;;29.45;;
32501;SDS011;18952;52.516;13.460;2022-08-16T06:12:09;34.63;;;29.95;;
32501;SDS011;18952;52.516;13.460;2022-08-16T06:14:51;31.33;;;27.98;;
32501;SDS011;18952;52.516;13.460;2022-08-16T06:17:20;29.83;;;26.63;;
32501;SDS011;18952;52.516;13.460;2022-08-16T06:19:46;31.15;;;27.85;;
32501;SDS011;18952;52.516;13.460;2022-08-16T06:22:16;31.20;;;28.02;;
32501;SDS011;18952;52.516;13.460;2022-08-16T06:25:03;30.83;;;27.17;;
32501;SDS011;18952;52.516;13.460;2022-08-16T06:27:30;24.25;;;21.70;;
32501;SDS011;18952;52.516;13.460;2022-08-16T06:30:06;24.95;;;22.52;;
32501;SDS011;18952;52.516;13.460;2022-08-16T06:32:33;30.65;;;24.00;;
32501;SDS011;18952;52.516;13.460;2022-08-16T06:35:08;27.98;;;25.27;;
32501;SDS011;18952;52.516;13.460;2022-08-16T06:37:35;25.55;;;23.00;;
32501;SDS011;18952;52.516;13.460;2022-08-16T06:40:03;25.58;;;22.58;;
32501;SDS011;18952;52.516;13.460;2022-08-16T06:42:40;25.63;;;22.92;;
32501;SDS011;18952;52.516;13.460;2022-08-16T06:45:21;23.33;;;20.02;;
32501;SDS011;18952;52.516;13.460;2022-08-16T06:47:54;24.92;;;20.60;;
32501;SDS011;18952;52.516;13.460;2022-08-16T06:50:22;20.58;;;18.67;;
32501;SDS011;18952;52.516;13.460;2022-08-16T06:52:55;19.38;;;17.45;;
32501;SDS011;18952;52.516;13.460;2022-08-16T06:55:26;20.48;;;18.48;;
32501;SDS011;18952;52.516;13.460;2022-08-16T06:57:59;19.70;;;17.65;;
32501;SDS011;18952;52.516;13.460;2022-08-16T07:00:34;20.27;;;17.73;;
32501;SDS011;18952;52.516;13.460;2022-08-16T07:03:03;20.08;;;18.13;;
32501;SDS011;18952;52.516;13.460;2022-08-16T07:05:51;21.55;;;17.75;;
32501;SDS011;18952;52.516;13.460;2022-08-16T07:08:19;21.67;;;18.67;;
32501;SDS011;18952;52.516;13.460;2022-08-16T07:10:46;20.05;;;18.00;;
32501;SDS011;18952;52.516;13.460;2022-08-16T07:13:13;23.67;;;20.25;;
32501;SDS011;18952;52.516;13.460;2022-08-16T07:16:00;24.55;;;19.70;;
32501;SDS011;18952;52.516;13.460;2022-08-16T07:18:28;22.08;;;18.17;;
32501;SDS011;18952;52.516;13.460;2022-08-16T07:20:56;22.05;;;19.85;;
32501;SDS011;18952;52.516;13.460;2022-08-16T07:23:27;23.10;;;19.65;;
32501;SDS011;18952;52.516;13.460;2022-08-16T07:26:02;24.43;;;21.03;;
32501;SDS011;18952;52.516;13.460;2022-08-16T07:28:31;25.92;;;20.63;;
32501;SDS011;18952;52.516;13.460;2022-08-16T07:30:57;23.98;;;20.38;;
32501;SDS011;18952;52.516;13.460;2022-08-16T07:33:25;21.88;;;19.60;;
32501;SDS011;18952;52.516;13.460;2022-08-16T07:36:13;21.58;;;19.58;;
32501;SDS011;18952;52.516;13.460;2022-08-16T07:38:47;23.00;;;20.53;;
32501;SDS011;18952;52.516;13.460;2022-08-16T07:41:15;23.23;;;20.92;;
32501;SDS011;18952;52.516;13.460;2022-08-16T07:43:42;22.45;;;20.20;;
32501;SDS011;18952;52.516;13.460;2022-08-16T07:46:08;22.58;;;19.90;;
32501;SDS011;18952;52.516;13.460;2022-08-16T07:48:55;21.48;;;18.83;;
32501;SDS011;18952;52.516;13.460;2022-08-16T07:51:28;23.00;;;20.60;;
32501;SDS011;18952;52.516;13.460;2022-08-16T07:54:02;22.25;;;19.92;;
32501;SDS011;18952;52.516;13.460;2022-08-16T07:56:36;23.35;;;20.88;;
32501;SDS011;18952;52.516;13.460;2022-08-16T07:59:03;21.52;;;19.35;;
32501;SDS011;18952;52.516;13.460;2022-08-16T08:01:31;21.83;;;19.45;;
32501;SDS011;18952;52.516;13.460;2022-08-16T08:03:59;21.75;;;19.42;;
32501;SDS011;18952;52.516;13.460;2022-08-16T08:06:29;22.70;;;20.30;;
32501;SDS011;18952;52.516;13.460;2022-08-16T08:08:58;24.67;;;21.35;;
32501;SDS011;18952;52.516;13.460;2022-08-16T08:11:25;22.50;;;20.17;;
32501;SDS011;18952;52.516;13.460;2022-08-16T08:13:55;23.80;;;20.52;;
32501;SDS011;18952;52.516;13.460;2022-08-16T08:16:28;19.65;;;17.75;;
32501;SDS011;18952;52.516;13.460;2022-08-16T08:18:57;18.60;;;15.93;;
32501;SDS011;18952;52.516;13.460;2022-08-16T08:21:28;19.98;;;15.98;;
32501;SDS011;18952;52.516;13.460;2022-08-16T08:24:17;18.65;;;15.95;;
32501;SDS011;18952;52.516;13.460;2022-08-16T08:26:44;17.25;;;15.48;;
32501;SDS011;18952;52.516;13.460;2022-08-16T08:29:16;18.88;;;16.85;;
32501;SDS011;18952;52.516;13.460;2022-08-16T08:31:48;18.17;;;16.27;;
32501;SDS011;18952;52.516;13.460;2022-08-16T08:34:16;18.25;;;16.38;;
32501;SDS011;18952;52.516;13.460;2022-08-16T08:36:43;22.20;;;18.08;;
32501;SDS011;18952;52.516;13.460;2022-08-16T08:39:10;21.73;;;17.50;;
32501;SDS011;18952;52.516;13.460;2022-08-16T08:41:39;19.90;;;17.92;;
32501;SDS011;18952;52.516;13.460;2022-08-16T08:44:07;20.80;;;18.70;;
32501;SDS011;18952;52.516;13.460;2022-08-16T08:46:55;18.85;;;17.15;;
32501;SDS011;18952;52.516;13.460;2022-08-16T08:49:27;20.48;;;15.95;;
32501;SDS011;18952;52.516;13.460;2022-08-16T08:52:15;17.70;;;15.90;;
32501;SDS011;18952;52.516;13.460;2022-08-16T08:55:01;18.30;;;16.38;;
32501;SDS011;18952;52.516;13.460;2022-08-16T08:57:41;19.90;;;16.48;;
32501;SDS011;18952;52.516;13.460;2022-08-16T09:00:10;16.75;;;15.15;;
32501;SDS011;18952;52.516;13.460;2022-08-16T09:02:42;19.17;;;17.15;;
32501;SDS011;18952;52.516;13.460;2022-08-16T09:05:18;22.98;;;17.85;;
32501;SDS011;18952;52.516;13.460;2022-08-16T09:07:47;20.75;;;17.27;;
32501;SDS011;18952;52.516;13.460;2022-08-16T09:10:28;18.63;;;16.55;;
32501;SDS011;18952;52.516;13.460;2022-08-16T09:12:56;16.73;;;15.02;;
32501;SDS011;18952;52.516;13.460;2022-08-16T09:15:24;15.20;;;13.68;;
32501;SDS011;18952;52.516;13.460;2022-08-16T09:17:58;17.70;;;15.48;;
32501;SDS011;18952;52.516;13.460;2022-08-16T09:20:46;15.77;;;14.35;;
32501;SDS011;18952;52.516;13.460;2022-08-16T09:23:26;20.40;;;14.50;;
32501;SDS011;18952;52.516;13.460;2022-08-16T09:25:54;16.90;;;15.02;;
32501;SDS011;18952;52.516;13.460;2022-08-16T09:28:21;16.58;;;13.57;;
32501;SDS011;18952;52.516;13.460;2022-08-16T09:31:08;17.10;;;15.00;;
32501;SDS011;18952;52.516;13.460;2022-08-16T09:33:36;13.45;;;12.20;;
32501;SDS011;18952;52.516;13.460;2022-08-16T09:36:04;13.73;;;12.23;;
32501;SDS011;18952;52.516;13.460;2022-08-16T09:38:37;15.02;;;12.02;;
32501;SDS011;18952;52.516;13.460;2022-08-16T09:41:07;16.10;;;12.63;;
32501;SDS011;18952;52.516;13.460;2022-08-16T09:43:40;14.70;;;12.73;;
32501;SDS011;18952;52.516;13.460;2022-08-16T09:49:12;17.83;;;12.38;;
32501;SDS011;18952;52.516;13.460;2022-08-16T09:51:41;15.63;;;14.02;;
32501;SDS011;18952;52.516;13.460;2022-08-16T09:54:07;16.10;;;14.68;;
32501;SDS011;18952;52.516;13.460;2022-08-16T09:56:35;16.23;;;14.35;;
32501;SDS011;18952;52.516;13.460;2022-08-16T09:59:05;19.00;;;14.20;;
32501;SDS011;18952;52.516;13.460;2022-08-16T10:01:34;15.70;;;14.10;;
32501;SDS011;18952;52.516;13.460;2022-08-16T10:04:03;18.13;;;13.77;;
32501;SDS011;18952;52.516;13.460;2022-08-16T10:06:51;13.45;;;11.75;;
32501;SDS011;18952;52.516;13.460;2022-08-16T10:09:23;13.73;;;11.73;;
32501;SDS011;18952;52.516;13.460;2022-08-16T10:11:50;15.07;;;10.85;;
32501;SDS011;18952;52.516;13.460;2022-08-16T10:14:17;16.25;;;13.35;;
32501;SDS011;18952;52.516;13.460;2022-08-16T10:16:45;17.02;;;12.75;;
32501;SDS011;18952;52.516;13.460;2022-08-16T10:19:14;16.42;;;12.82;;
32501;SDS011;18952;52.516;13.460;2022-08-16T10:21:44;13.20;;;11.77;;
32501;SDS011;18952;52.516;13.460;2022-08-16T10:24:21;13.38;;;11.98;;
32501;SDS011;18952;52.516;13.460;2022-08-16T10:26:54;17.13;;;11.02;;
32501;SDS011;18952;52.516;13.460;2022-08-16T10:29:40;15.10;;;10.48;;
32501;SDS011;18952;52.516;13.460;2022-08-16T10:32:27;12.65;;;9.57;;
32501;SDS011;18952;52.516;13.460;2022-08-16T10:34:56;12.27;;;9.75;;
32501;SDS011;18952;52.516;13.460;2022-08-16T10:37:23;15.93;;;9.52;;
32501;SDS011;18952;52.516;13.460;2022-08-16T10:40:03;11.45;;;9.90;;
32501;SDS011;18952;52.516;13.460;2022-08-16T10:42:51;14.68;;;9.98;;
32501;SDS011;18952;52.516;13.460;2022-08-16T10:45:19;12.18;;;10.38;;
32501;SDS011;18952;52.516;13.460;2022-08-16T10:47:46;12.35;;;10.25;;
32501;SDS011;18952;52.516;13.460;2022-08-16T10:50:24;13.13;;;10.63;;
32501;SDS011;18952;52.516;13.460;2022-08-16T10:52:51;13.38;;;9.75;;
32501;SDS011;18952;52.516;13.460;2022-08-16T10:55:24;15.45;;;9.20;;
32501;SDS011;18952;52.516;13.460;2022-08-16T10:58:11;12.20;;;8.20;;
32501;SDS011;18952;52.516;13.460;2022-08-16T11:00:42;10.60;;;8.45;;
32501;SDS011;18952;52.516;13.460;2022-08-16T11:03:11;9.85;;;7.50;;
32501;SDS011;18952;52.516;13.460;2022-08-16T11:05:59;10.63;;;8.73;;
32501;SDS011;18952;52.516;13.460;2022-08-16T11:08:31;10.68;;;8.10;;
32501;SDS011;18952;52.516;13.460;2022-08-16T11:11:03;11.25;;;7.70;;
32501;SDS011;18952;52.516;13.460;2022-08-16T11:13:44;12.20;;;8.55;;
32501;SDS011;18952;52.516;13.460;2022-08-16T11:16:32;8.55;;;7.68;;
32501;SDS011;18952;52.516;13.460;2022-08-16T11:19:18;12.80;;;7.55;;
32501;SDS011;18952;52.516;13.460;2022-08-16T11:21:47;16.77;;;7.88;;
32501;SDS011;18952;52.516;13.460;2022-08-16T11:24:35;9.82;;;7.68;;
32501;SDS011;18952;52.516;13.460;2022-08-16T11:27:18;11.25;;;7.60;;
32501;SDS011;18952;52.516;13.460;2022-08-16T11:29:50;11.80;;;8.02;;
32501;SDS011;18952;52.516;13.460;2022-08-16T11:32:21;12.20;;;8.18;;
32501;SDS011;18952;52.516;13.460;2022-08-16T11:34:57;10.65;;;8.63;;
32501;SDS011;18952;52.516;13.460;2022-08-16T11:37:36;14.80;;;8.80;;
32501;SDS011;18952;52.516;13.460;2022-08-16T11:40:25;13.05;;;9.15;;
32501;SDS011;18952;52.516;13.460;2022-08-16T11:42:58;12.02;;;9.10;;
32501;SDS011;18952;52.516;13.460;2022-08-16T11:45:25;11.65;;;8.30;;
32501;SDS011;18952;52.516;13.460;2022-08-16T11:47:58;17.02;;;8.80;;
32501;SDS011;18952;52.516;13.460;2022-08-16T11:50:25;10.52;;;8.73;;
32501;SDS011;18952;52.516;13.460;2022-08-16T11:52:52;13.10;;;8.43;;
32501;SDS011;18952;52.516;13.460;2022-08-16T11:55:18;11.65;;;8.30;;
32501;SDS011;18952;52.516;13.460;2022-08-16T11:57:48;11.52;;;8.48;;
32501;SDS011;18952;52.516;13.460;2022-08-16T12:00:22;12.10;;;7.80;;
32501;SDS011;18952;52.516;13.460;2022-08-16T12:03:09;8.57;;;7.55;;
32501;SDS011;18952;52.516;13.460;2022-08-16T12:05:37;10.73;;;6.80;;
32501;SDS011;18952;52.516;13.460;2022-08-16T12:08:05;10.75;;;6.82;;
32501;SDS011;18952;52.516;13.460;2022-08-16T12:10:33;9.00;;;7.00;;
32501;SDS011;18952;52.516;13.460;2022-08-16T12:13:02;10.13;;;6.20;;
32501;SDS011;18952;52.516;13.460;2022-08-16T12:15:30;12.48;;;7.10;;
32501;SDS011;18952;52.516;13.460;2022-08-16T12:17:59;12.00;;;6.60;;
32501;SDS011;18952;52.516;13.460;2022-08-16T12:20:28;8.75;;;7.25;;
32501;SDS011;18952;52.516;13.460;2022-08-16T12:22:59;9.75;;;6.55;;
32501;SDS011;18952;52.516;13.460;2022-08-16T12:25:27;11.80;;;6.80;;
32501;SDS011;18952;52.516;13.460;2022-08-16T12:27:55;9.15;;;6.15;;
32501;SDS011;18952;52.516;13.460;2022-08-16T12:30:25;9.48;;;6.00;;
32501;SDS011;18952;52.516;13.460;2022-08-16T12:33:00;7.90;;;6.30;;
32501;SDS011;18952;52.516;13.460;2022-08-16T12:35:29;8.35;;;6.20;;
32501;SDS011;18952;52.516;13.460;2022-08-16T12:37:57;9.85;;;6.35;;
32501;SDS011;18952;52.516;13.460;2022-08-16T12:40:33;10.00;;;5.95;;
32501;SDS011;18952;52.516;13.460;2022-08-16T12:43:08;11.77;;;5.85;;
32501;SDS011;18952;52.516;13.460;2022-08-16T12:45:37;11.40;;;6.32;;
32501;SDS011;18952;52.516;13.460;2022-08-16T12:48:08;5.85;;;5.10;;
32501;SDS011;18952;52.516;13.460;2022-08-16T12:50:55;13.80;;;5.40;;
32501;SDS011;18952;52.516;13.460;2022-08-16T12:53:22;12.35;;;5.20;;
32501;SDS011;18952;52.516;13.460;2022-08-16T12:55:50;10.50;;;5.97;;
32501;SDS011;18952;52.516;13.460;2022-08-16T12:58:18;10.30;;;5.70;;
32501;SDS011;18952;52.516;13.460;2022-08-16T13:01:05;10.50;;;5.88;;
32501;SDS011;18952;52.516;13.460;2022-08-16T13:03:34;11.55;;;6.00;;
32501;SDS011;18952;52.516;13.460;2022-08-16T13:06:05;7.47;;;5.50;;
32501;SDS011;18952;52.516;13.460;2022-08-16T13:08:33;7.78;;;5.40;;
32501;SDS011;18952;52.516;13.460;2022-08-16T13:11:01;10.65;;;5.78;;
32501;SDS011;18952;52.516;13.460;2022-08-16T13:13:29;8.18;;;5.70;;
32501;SDS011;18952;52.516;13.460;2022-08-16T13:15:58;12.80;;;5.75;;
32501;SDS011;18952;52.516;13.460;2022-08-16T13:18:36;8.77;;;5.80;;
32501;SDS011;18952;52.516;13.460;2022-08-16T13:21:05;7.50;;;5.68;;
32501;SDS011;18952;52.516;13.460;2022-08-16T13:23:35;12.27;;;5.80;;
32501;SDS011;18952;52.516;13.460;2022-08-16T13:26:09;11.18;;;6.57;;
32501;SDS011;18952;52.516;13.460;2022-08-16T13:28:36;9.98;;;5.30;;
32501;SDS011;18952;52.516;13.460;2022-08-16T13:31:03;14.27;;;5.93;;
32501;SDS011;18952;52.516;13.460;2022-08-16T13:33:33;12.35;;;6.03;;
32501;SDS011;18952;52.516;13.460;2022-08-16T13:36:00;13.15;;;7.18;;
32501;SDS011;18952;52.516;13.460;2022-08-16T13:38:29;11.45;;;5.88;;
32501;SDS011;18952;52.516;13.460;2022-08-16T13:41:03;8.93;;;5.50;;
32501;SDS011;18952;52.516;13.460;2022-08-16T13:43:33;8.05;;;5.35;;
32501;SDS011;18952;52.516;13.460;2022-08-16T13:46:01;8.70;;;5.15;;
32501;SDS011;18952;52.516;13.460;2022-08-16T13:48:30;9.27;;;4.90;;
32501;SDS011;18952;52.516;13.460;2022-08-16T13:51:10;10.23;;;5.50;;
32501;SDS011;18952;52.516;13.460;2022-08-16T13:53:42;12.02;;;5.13;;
32501;SDS011;18952;52.516;13.460;2022-08-16T13:56:25;7.72;;;4.88;;
32501;SDS011;18952;52.516;13.460;2022-08-16T13:59:03;6.88;;;4.80;;
32501;SDS011;18952;52.516;13.460;2022-08-16T14:01:50;6.93;;;5.30;;
32501;SDS011;18952;52.516;13.460;2022-08-16T14:04:21;9.68;;;4.80;;
32501;SDS011;18952;52.516;13.460;2022-08-16T14:06:51;8.80;;;5.20;;
32501;SDS011;18952;52.516;13.460;2022-08-16T14:09:20;7.70;;;4.80;;
32501;SDS011;18952;52.516;13.460;2022-08-16T14:11:46;10.70;;;4.68;;
32501;SDS011;18952;52.516;13.460;2022-08-16T14:14:19;10.60;;;4.95;;
32501;SDS011;18952;52.516;13.460;2022-08-16T14:16:55;10.02;;;4.70;;
32501;SDS011;18952;52.516;13.460;2022-08-16T14:19:26;5.47;;;4.68;;
32501;SDS011;18952;52.516;13.460;2022-08-16T14:21:55;13.18;;;5.47;;
32501;SDS011;18952;52.516;13.460;2022-08-16T14:24:40;7.50;;;5.07;;
32501;SDS011;18952;52.516;13.460;2022-08-16T14:27:12;9.43;;;4.70;;
32501;SDS011;18952;52.516;13.460;2022-08-16T14:29:40;10.70;;;4.60;;
32501;SDS011;18952;52.516;13.460;2022-08-16T14:32:09;8.48;;;4.93;;
32501;SDS011;18952;52.516;13.460;2022-08-16T14:34:53;7.63;;;4.40;;
32501;SDS011;18952;52.516;13.460;2022-08-16T14:37:21;7.47;;;4.22;;
32501;SDS011;18952;52.516;13.460;2022-08-16T14:39:48;8.50;;;3.97;;
32501;SDS011;18952;52.516;13.460;2022-08-16T14:42:18;10.43;;;4.28;;
32501;SDS011;18952;52.516;13.460;2022-08-16T14:44:48;8.23;;;4.50;;
32501;SDS011;18952;52.516;13.460;2022-08-16T14:47:15;6.00;;;3.70;;
32501;SDS011;18952;52.516;13.460;2022-08-16T14:49:42;5.00;;;3.75;;
32501;SDS011;18952;52.516;13.460;2022-08-16T14:52:11;5.10;;;3.83;;
32501;SDS011;18952;52.516;13.460;2022-08-16T14:54:57;7.85;;;3.65;;
32501;SDS011;18952;52.516;13.460;2022-08-16T14:57:24;9.98;;;4.40;;